Time;durP1;ratioP1;P1;durP2;ratioP2;P2;SDS_P1;SDS_P2;PMS_P1;PMS_P2;Temp;Humidity;BMP_temperature;BMP_pressure;BME280_temperature;BME280_humidity;BME280_pressure;Samples;Min_cycle;Max_cycle;Signal;HPM_P1;HPM_P2
2023/10/18 00:01:05;;;;;;;0.00;0.00;;;;;;;11.68;71.38;99234.59;4935577;28;20501;-75
2023/10/18 00:03:32;;;;;;;0.00;0.00;;;;;;;11.62;71.92;99230.34;4944952;28;20063;-75
2023/10/18 00:06:18;;;;;;;0.00;0.00;;;;;;;11.61;72.01;99239.66;4949940;28;20455;-75
2023/10/18 00:08:47;;;;;;;0.00;0.00;;;;;;;11.51;71.83;99234.34;4949082;28;20035;-73
2023/10/18 00:11:15;;;;;;;0.00;0.00;;;;;;;11.43;71.83;99221.34;4945850;28;20085;-74
2023/10/18 00:13:40;;;;;;;0.00;0.00;;;;;;;11.38;72.55;99216.00;4943282;28;20032;-75
2023/10/18 00:16:07;;;;;;;0.00;0.00;;;;;;;11.43;72.68;99215.88;4934264;29;20038;-76
2023/10/18 00:18:36;;;;;;;0.00;0.00;;;;;;;11.43;72.26;99207.66;4944439;28;20077;-76
2023/10/18 00:21:06;;;;;;;0.00;0.00;;;;;;;11.50;72.53;99211.63;4947008;28;20118;-75
2023/10/18 00:23:32;;;;;;;0.00;0.00;;;;;;;11.46;72.25;99198.84;4954163;28;20099;-76
2023/10/18 00:26:08;;;;;;;0.00;0.00;;;;;;;11.44;72.26;99195.63;4945391;28;20106;-75
2023/10/18 00:28:36;;;;;;;0.00;0.00;;;;;;;11.45;72.46;99200.78;4960121;28;20406;-76
2023/10/18 00:31:28;;;;;;;0.00;0.00;;;;;;;11.41;72.87;99196.22;4963196;28;20054;-76
2023/10/18 00:33:53;;;;;;;0.00;0.00;;;;;;;11.34;72.40;99186.47;4955341;28;20610;-76
2023/10/18 00:36:19;;;;;;;0.00;0.00;;;;;;;11.29;72.52;99178.34;4924068;28;20034;-75
2023/10/18 00:38:46;;;;;;;0.00;0.00;;;;;;;11.34;73.03;99189.19;4955236;28;20082;-76
2023/10/18 00:41:16;;;;;;;0.00;0.00;;;;;;;11.30;72.54;99182.72;4944209;28;20034;-75
2023/10/18 00:43:45;;;;;;;0.00;0.00;;;;;;;11.25;72.59;99177.31;4958017;28;20050;-76
2023/10/18 00:46:13;;;;;;;0.00;0.00;;;;;;;11.26;73.23;99165.28;4954456;28;20031;-75
2023/10/18 00:48:40;;;;;;;0.00;0.00;;;;;;;11.29;73.12;99155.66;4944654;28;20414;-75
2023/10/18 00:51:09;;;;;;;0.00;0.00;;;;;;;11.34;72.53;99161.81;4951278;28;20039;-76
2023/10/18 00:53:37;;;;;;;0.00;0.00;;;;;;;11.31;72.93;99139.75;4941228;28;20054;-74
2023/10/18 00:56:07;;;;;;;0.00;0.00;;;;;;;11.30;72.84;99136.19;4950609;28;20090;-74
2023/10/18 00:58:34;;;;;;;0.00;0.00;;;;;;;11.27;73.08;99130.50;4958514;28;20031;-74
2023/10/18 01:01:20;;;;;;;0.00;0.00;;;;;;;11.27;72.85;99134.06;4941059;28;20024;-75
2023/10/18 01:03:46;;;;;;;0.00;0.00;;;;;;;11.19;72.52;99129.28;4945789;28;20423;-74
2023/10/18 01:06:17;;;;;;;0.00;0.00;;;;;;;11.10;72.84;99120.97;4927182;28;20028;-74
2023/10/18 01:08:50;;;;;;;0.00;0.00;;;;;;;11.04;73.50;99107.66;4956984;28;21820;-75
2023/10/18 01:11:23;;;;;;;0.00;0.00;;;;;;;11.00;73.95;99102.78;4940365;28;20027;-75
2023/10/18 01:13:48;;;;;;;0.00;0.00;;;;;;;10.98;73.90;99106.94;4964447;28;20043;-75
2023/10/18 01:16:22;;;;;;;0.00;0.00;;;;;;;11.02;74.26;99107.16;4936826;28;20386;-75
2023/10/18 01:18:49;;;;;;;0.00;0.00;;;;;;;11.03;74.31;99098.66;4946317;28;20023;-75
2023/10/18 01:21:21;;;;;;;0.00;0.00;;;;;;;11.06;74.10;99097.25;4930760;28;20471;-76
2023/10/18 01:23:55;;;;;;;0.00;0.00;;;;;;;11.02;74.11;99079.81;4932382;29;20039;-75
2023/10/18 01:26:24;;;;;;;0.00;0.00;;;;;;;11.09;74.61;99077.50;4924531;29;20028;-75
2023/10/18 01:28:51;;;;;;;0.00;0.00;;;;;;;11.05;74.28;99062.78;4928504;29;20034;-76
2023/10/18 01:31:17;;;;;;;0.00;0.00;;;;;;;11.06;74.43;99051.53;4927231;29;20028;-76
2023/10/18 01:33:43;;;;;;;0.00;0.00;;;;;;;11.14;74.37;99060.97;4948136;28;20035;-77
2023/10/18 01:36:14;;;;;;;0.00;0.00;;;;;;;11.13;74.47;99048.41;4920776;28;20042;-76
2023/10/18 01:38:42;;;;;;;0.00;0.00;;;;;;;11.20;74.00;99043.34;4927292;29;20467;-75
2023/10/18 01:41:25;;;;;;;0.00;0.00;;;;;;;11.27;74.34;99048.41;4929585;29;20383;-75
2023/10/18 01:43:51;;;;;;;0.00;0.00;;;;;;;11.26;73.89;99050.34;4930694;29;20031;-74
2023/10/18 01:46:17;;;;;;;0.00;0.00;;;;;;;11.25;74.24;99035.03;4910418;29;20032;-75
2023/10/18 01:48:50;;;;;;;0.00;0.00;;;;;;;11.21;73.45;99039.50;4916061;29;20032;-73
2023/10/18 01:51:19;;;;;;;0.08;0.08;;;;;;;11.23;73.61;99030.97;4927491;28;20035;-75
2023/10/18 01:53:45;;;;;;;0.00;0.00;;;;;;;11.19;73.92;99030.78;4923797;29;20026;-75
2023/10/18 01:56:10;;;;;;;0.00;0.00;;;;;;;11.14;74.13;99018.03;4928623;29;20028;-74
2023/10/18 01:58:37;;;;;;;0.00;0.00;;;;;;;11.11;74.15;99017.81;4939112;28;20040;-75
2023/10/18 02:01:08;;;;;;;0.00;0.00;;;;;;;11.11;74.59;99012.31;4918912;29;20028;-75
2023/10/18 02:03:35;;;;;;;0.00;0.00;;;;;;;11.08;74.34;99007.47;4932135;29;20078;-75
2023/10/18 02:06:06;;;;;;;0.00;0.00;;;;;;;11.14;74.62;99001.59;4928647;29;20028;-75
2023/10/18 02:08:33;;;;;;;0.00;0.00;;;;;;;11.16;74.39;98993.88;4921836;29;20032;-75
2023/10/18 02:10:58;;;;;;;0.00;0.00;;;;;;;11.18;73.92;98985.38;4910455;29;20031;-75
2023/10/18 02:13:24;;;;;;;0.00;0.00;;;;;;;11.14;74.04;98992.56;4940940;28;20034;-75
2023/10/18 02:15:50;;;;;;;0.00;0.00;;;;;;;11.07;74.77;98978.47;4921588;29;20039;-75
2023/10/18 02:18:16;;;;;;;0.00;0.00;;;;;;;11.06;74.93;98982.34;4925578;29;20181;-74
2023/10/18 02:20:50;;;;;;;0.00;0.00;;;;;;;11.05;74.83;98991.66;4926939;29;20059;-73
2023/10/18 02:23:16;;;;;;;0.00;0.00;;;;;;;11.03;74.53;98985.69;4946012;28;20554;-74
2023/10/18 02:28:08;;;;;;;0.00;0.00;;;;;;;10.94;74.98;98967.25;4936506;28;20640;-74
2023/10/18 02:30:38;;;;;;;0.00;0.00;;;;;;;10.89;74.88;98961.06;4940369;28;20034;-74
2023/10/18 02:33:05;;;;;;;0.00;0.00;;;;;;;10.86;75.30;98957.00;4941374;28;20023;-75
2023/10/18 02:35:33;;;;;;;0.00;0.00;;;;;;;10.85;75.52;98949.13;4953632;28;20031;-74
2023/10/18 02:38:08;;;;;;;0.00;0.00;;;;;;;10.90;75.53;98938.09;4938641;28;20063;-74
2023/10/18 02:40:38;;;;;;;0.00;0.00;;;;;;;10.94;75.48;98933.63;4948516;28;20031;-74
2023/10/18 02:43:08;;;;;;;0.00;0.00;;;;;;;11.03;75.22;98933.72;4951544;28;20110;-74
2023/10/18 02:45:33;;;;;;;0.00;0.00;;;;;;;11.03;75.46;98925.53;4946163;28;20437;-74
2023/10/18 02:48:00;;;;;;;0.00;0.00;;;;;;;11.02;75.66;98915.69;4944181;28;20027;-74
2023/10/18 02:50:26;;;;;;;0.00;0.00;;;;;;;11.00;75.94;98916.78;4926154;29;20376;-74
2023/10/18 02:52:53;;;;;;;0.00;0.00;;;;;;;10.98;75.73;98915.47;4955374;28;20134;-74
2023/10/18 02:55:19;;;;;;;0.00;0.00;;;;;;;10.93;75.79;98902.72;4944525;28;20034;-74
2023/10/18 02:57:47;;;;;;;0.00;0.00;;;;;;;10.89;76.31;98896.25;4954769;28;20066;-74
2023/10/18 03:00:14;;;;;;;0.00;0.00;;;;;;;10.89;76.18;98890.78;4941974;28;21481;-75
2023/10/18 03:02:39;;;;;;;0.00;0.00;;;;;;;10.87;75.98;98893.00;4952038;28;20146;-75
2023/10/18 03:05:06;;;;;;;0.00;0.00;;;;;;;10.97;76.13;98892.78;4943961;28;20179;-75
2023/10/18 03:07:32;;;;;;;0.00;0.00;;;;;;;11.00;76.27;98883.19;4954936;28;20502;-74
2023/10/18 03:10:27;;;;;;;0.00;0.00;;;;;;;11.09;76.20;98888.72;4947595;28;20181;-76
2023/10/18 03:12:44;;;;;;;0.00;0.00;;;;;;;11.13;76.17;98878.81;4944500;28;20040;-75
2023/10/18 03:15:17;;;;;;;0.00;0.00;;;;;;;11.16;75.71;98878.19;4931855;28;20126;-74
2023/10/18 03:17:43;;;;;;;0.00;0.00;;;;;;;11.18;76.00;98865.00;4942523;28;20517;-75
2023/10/18 03:20:22;;;;;;;0.00;0.00;;;;;;;11.15;76.00;98857.41;4947433;29;20031;-74
2023/10/18 03:22:49;;;;;;;0.00;0.00;;;;;;;11.13;75.71;98843.25;4945476;28;20043;-73
2023/10/18 03:25:16;;;;;;;0.00;0.00;;;;;;;11.15;76.31;98849.19;4961412;28;20024;-74
2023/10/18 03:27:49;;;;;;;0.00;0.00;;;;;;;11.11;76.08;98843.53;4941833;28;20031;-75
2023/10/18 03:30:23;;;;;;;0.00;0.00;;;;;;;11.16;76.19;98846.16;4970222;28;20022;-75
2023/10/18 03:32:51;;;;;;;0.00;0.00;;;;;;;11.22;76.31;98838.63;4947234;28;20394;-74
2023/10/18 03:35:20;;;;;;;0.00;0.00;;;;;;;11.14;76.20;98831.16;4950671;28;20110;-75
2023/10/18 03:37:46;;;;;;;0.00;0.00;;;;;;;11.19;76.37;98831.06;4945887;28;20044;-74
2023/10/18 03:40:24;;;;;;;0.00;0.00;;;;;;;11.18;76.16;98826.69;4954457;28;20596;-73
2023/10/18 03:42:51;;;;;;;0.00;0.00;;;;;;;11.22;76.24;98824.97;4949487;28;20026;-74
2023/10/18 03:45:22;;;;;;;0.00;0.00;;;;;;;11.26;76.00;98827.91;4931240;29;20043;-74
2023/10/18 03:48:06;;;;;;;0.00;0.00;;;;;;;11.26;76.40;98828.69;4947466;28;20036;-73
2023/10/18 03:50:41;;;;;;;0.00;0.00;;;;;;;11.23;76.42;98823.84;4949743;28;20858;-74
2023/10/18 03:53:07;;;;;;;0.00;0.00;;;;;;;11.26;76.47;98817.75;4949581;28;20038;-75
2023/10/18 03:55:38;;;;;;;0.00;0.00;;;;;;;11.27;76.63;98813.09;4965857;28;20031;-75
2023/10/18 03:58:07;;;;;;;0.00;0.00;;;;;;;11.28;76.37;98799.09;4927477;28;20030;-75
2023/10/18 04:00:39;;;;;;;0.00;0.00;;;;;;;11.34;76.02;98797.03;4946933;28;20027;-74
2023/10/18 04:03:12;;;;;;;0.00;0.00;;;;;;;11.25;76.33;98783.28;4962200;28;20371;-75
2023/10/18 04:05:49;;;;;;;0.00;0.00;;;;;;;11.30;76.12;98780.44;4927355;29;20035;-74
2023/10/18 04:08:17;;;;;;;0.00;0.00;;;;;;;11.38;75.99;98794.50;4959113;28;20452;-75
2023/10/18 04:10:44;;;;;;;0.00;0.00;;;;;;;11.35;76.08;98783.03;4946582;28;20169;-74
2023/10/18 04:13:12;;;;;;;0.00;0.00;;;;;;;11.41;76.77;98785.66;4964079;28;20035;-75
2023/10/18 04:15:59;;;;;;;0.00;0.00;;;;;;;11.38;76.06;98778.09;4943418;28;20027;-75
2023/10/18 04:18:29;;;;;;;0.00;0.00;;;;;;;11.39;76.42;98779.69;4952018;28;20090;-75
2023/10/18 04:20:59;;;;;;;0.00;0.00;;;;;;;11.38;76.50;98769.88;4944281;28;20031;-73
2023/10/18 04:23:28;;;;;;;0.00;0.00;;;;;;;11.36;76.38;98751.03;4961429;28;20121;-74
2023/10/18 04:26:01;;;;;;;0.00;0.00;;;;;;;11.32;76.23;98756.31;4943754;28;21265;-74
2023/10/18 04:28:31;;;;;;;0.00;0.00;;;;;;;11.31;76.37;98753.88;4950718;28;20549;-74
2023/10/18 04:31:00;;;;;;;0.00;0.00;;;;;;;11.30;76.78;98752.25;4942939;28;20047;-74
2023/10/18 04:33:43;;;;;;;0.00;0.00;;;;;;;11.28;77.13;98741.63;4950321;28;20134;-75
2023/10/18 04:36:12;;;;;;;0.00;0.00;;;;;;;11.24;76.67;98748.84;4958650;28;20130;-76
2023/10/18 04:38:48;;;;;;;0.00;0.00;;;;;;;11.23;77.19;98738.19;4939492;28;20069;-74
2023/10/18 04:41:23;;;;;;;0.00;0.00;;;;;;;11.21;76.88;98735.78;4929318;28;20059;-76
2023/10/18 04:44:04;;;;;;;0.00;0.00;;;;;;;11.23;77.64;98717.13;4949046;28;20033;-76
2023/10/18 04:46:30;;;;;;;0.00;0.00;;;;;;;11.37;76.96;98713.50;4942050;28;20082;-75
2023/10/18 04:51:26;;;;;;;0.00;0.00;;;;;;;11.39;76.82;98703.06;4945263;28;20039;-74
2023/10/18 04:54:03;;;;;;;0.00;0.00;;;;;;;11.34;77.17;98704.78;4939841;28;20039;-73
2023/10/18 04:56:38;;;;;;;0.00;0.00;;;;;;;11.33;77.24;98678.56;4944196;28;20066;-76
2023/10/18 04:59:44;;;;;;;0.00;0.00;;;;;;;11.50;77.31;98690.72;4940837;28;20030;-75
2023/10/18 05:04:24;;;;;;;0.00;0.00;;;;;;;11.65;76.68;98664.84;4932089;29;20023;-75
2023/10/18 05:06:55;;;;;;;0.00;0.00;;;;;;;11.73;76.27;98666.81;4930593;28;20436;-75
2023/10/18 05:09:29;;;;;;;0.00;0.00;;;;;;;11.80;75.83;98671.84;4954806;28;20023;-76
2023/10/18 05:11:59;;;;;;;0.00;0.00;;;;;;;11.75;75.77;98675.53;4947728;28;20035;-75
2023/10/18 05:14:36;;;;;;;0.00;0.00;;;;;;;11.69;75.97;98669.38;4964584;28;20059;-75
2023/10/18 05:17:17;;;;;;;0.00;0.00;;;;;;;11.65;76.32;98681.28;4961355;28;20030;-74
2023/10/18 05:19:45;;;;;;;0.00;0.00;;;;;;;11.64;76.22;98675.00;4950168;28;20089;-75
2023/10/18 05:22:23;;;;;;;0.00;0.00;;;;;;;11.58;76.76;98676.28;4939047;28;20289;-74
2023/10/18 05:27:45;;;;;;;0.00;0.00;;;;;;;11.35;76.34;98662.63;4941719;28;20439;-74
2023/10/18 05:30:15;;;;;;;0.00;0.00;;;;;;;11.45;76.66;98683.47;4931468;29;20043;-74
2023/10/18 05:33:02;;;;;;;0.00;0.00;;;;;;;11.38;77.25;98655.72;4915764;28;20063;-75
2023/10/18 05:35:28;;;;;;;0.00;0.00;;;;;;;11.42;77.45;98653.97;4947402;28;20042;-74
2023/10/18 05:37:59;;;;;;;0.00;0.00;;;;;;;11.32;77.24;98644.09;4944987;28;20035;-76
2023/10/18 05:43:12;;;;;;;0.00;0.00;;;;;;;11.45;76.91;98647.06;4940846;28;20152;-75
2023/10/18 05:45:41;;;;;;;0.00;0.00;;;;;;;11.42;77.13;98636.72;4946389;28;20023;-74
2023/10/18 05:48:13;;;;;;;0.00;0.00;;;;;;;11.42;77.39;98623.06;4946106;28;20035;-75
2023/10/18 05:50:45;;;;;;;0.00;0.00;;;;;;;11.53;77.37;98618.91;4948159;28;20122;-75
2023/10/18 05:53:18;;;;;;;0.00;0.00;;;;;;;11.59;77.10;98617.66;4941787;28;20055;-75
2023/10/18 05:55:52;;;;;;;0.00;0.00;;;;;;;11.55;77.08;98600.25;4947073;28;20091;-76
2023/10/18 05:58:25;;;;;;;0.00;0.00;;;;;;;11.68;77.00;98609.47;4945147;28;20043;-75
2023/10/18 06:00:55;;;;;;;0.00;0.00;;;;;;;11.64;76.77;98603.81;4937187;29;20126;-75
2023/10/18 06:03:22;;;;;;;0.00;0.00;;;;;;;11.67;76.73;98602.38;4942087;28;20034;-74
2023/10/18 06:05:51;;;;;;;0.00;0.00;;;;;;;11.70;77.00;98602.53;4930461;29;20035;-74
2023/10/18 06:08:18;;;;;;;0.00;0.00;;;;;;;11.71;76.57;98606.09;4945645;28;20031;-74
2023/10/18 06:10:44;;;;;;;0.00;0.00;;;;;;;11.65;76.68;98604.63;4946256;28;20378;-75
2023/10/18 06:13:20;;;;;;;0.00;0.00;;;;;;;11.57;76.76;98597.22;4947029;28;20031;-75
2023/10/18 06:15:50;;;;;;;0.00;0.00;;;;;;;11.50;77.02;98595.72;4942871;28;20255;-76
2023/10/18 06:18:18;;;;;;;0.00;0.00;;;;;;;11.47;77.27;98599.09;4956615;28;20090;-75
2023/10/18 06:20:46;;;;;;;0.00;0.00;;;;;;;11.45;77.53;98601.34;4927111;28;20046;-75
2023/10/18 06:25:49;;;;;;;0.00;0.00;;;;;;;11.52;77.47;98578.97;4940606;28;20031;-77
2023/10/18 06:28:21;;;;;;;0.00;0.00;;;;;;;11.46;77.25;98574.78;4939579;28;20026;-77
2023/10/18 06:30:56;;;;;;;0.00;0.00;;;;;;;11.49;77.06;98574.97;4920680;28;20089;-76
2023/10/18 06:33:35;;;;;;;0.00;0.00;;;;;;;11.56;77.73;98573.69;4944780;28;20322;-77
2023/10/18 06:36:12;;;;;;;0.00;0.00;;;;;;;11.58;77.33;98575.00;4944451;28;20491;-74
2023/10/18 06:38:43;;;;;;;0.00;0.00;;;;;;;11.65;77.31;98567.13;4945670;28;20074;-74
2023/10/18 06:41:22;;;;;;;0.00;0.00;;;;;;;11.44;77.32;98555.13;4960562;28;20023;-73
2023/10/18 06:43:52;;;;;;;0.00;0.00;;;;;;;11.27;78.44;98561.34;4935503;28;20030;-79
2023/10/18 06:46:33;;;;;;;0.00;0.00;;;;;;;11.16;78.67;98545.22;4942849;28;20079;-74
2023/10/18 06:49:05;;;;;;;0.00;0.00;;;;;;;11.06;79.38;98539.22;4942917;28;20015;-75
2023/10/18 06:51:33;;;;;;;0.00;0.00;;;;;;;11.08;79.55;98547.91;4943641;28;20450;-76
2023/10/18 06:54:06;;;;;;;0.00;0.00;;;;;;;11.11;79.99;98544.53;4942135;28;20031;-74
2023/10/18 06:56:39;;;;;;;0.00;0.00;;;;;;;10.96;80.47;98527.41;4936171;28;20081;-75
2023/10/18 06:59:10;;;;;;;0.00;0.00;;;;;;;10.93;80.00;98528.06;4938098;28;20478;-75
2023/10/18 07:04:37;;;;;;;0.00;0.00;;;;;;;10.98;80.65;98500.59;4939642;28;20126;-75
2023/10/18 07:07:11;;;;;;;0.00;0.00;;;;;;;11.10;80.49;98512.88;4956112;28;20538;-75
2023/10/18 07:09:38;;;;;;;0.00;0.00;;;;;;;11.08;80.64;98498.69;4937858;28;20026;-76
2023/10/18 07:12:03;;;;;;;0.00;0.00;;;;;;;11.09;80.77;98487.41;4942863;28;20390;-75
2023/10/18 07:14:35;;;;;;;0.00;0.00;;;;;;;11.17;80.66;98485.84;4948938;28;20026;-75
2023/10/18 07:17:04;;;;;;;0.00;0.00;;;;;;;11.26;80.76;98505.81;4945200;28;20101;-75
2023/10/18 07:19:40;;;;;;;0.00;0.00;;;;;;;11.28;80.67;98506.31;4950653;28;20058;-76
2023/10/18 07:22:06;;;;;;;0.00;0.00;;;;;;;11.31;80.75;98499.41;4943416;28;20051;-75
2023/10/18 07:24:34;;;;;;;0.00;0.00;;;;;;;11.42;80.61;98516.31;4942877;28;20038;-75
2023/10/18 07:27:03;;;;;;;0.00;0.00;;;;;;;11.42;80.78;98494.41;4944616;28;20030;-75
2023/10/18 07:29:29;;;;;;;0.00;0.00;;;;;;;11.49;80.49;98492.03;4932633;28;20035;-75
2023/10/18 07:31:59;;;;;;;0.00;0.00;;;;;;;11.44;80.75;98464.81;4947054;28;20106;-74
2023/10/18 07:34:31;;;;;;;0.00;0.00;;;;;;;11.58;80.71;98489.31;4956134;28;20023;-75
2023/10/18 07:36:57;;;;;;;0.00;0.00;;;;;;;11.58;80.54;98476.44;4944104;28;20026;-76
2023/10/18 07:39:26;;;;;;;0.00;0.00;;;;;;;11.72;80.89;98494.66;4943197;28;20027;-75
2023/10/18 07:41:55;;;;;;;0.00;0.00;;;;;;;11.72;80.64;98487.22;4950921;28;20035;-75
2023/10/18 07:44:29;;;;;;;0.00;0.00;;;;;;;11.67;80.98;98477.25;4941684;28;20057;-75
2023/10/18 07:46:54;;;;;;;0.00;0.00;;;;;;;11.68;80.80;98473.38;4947135;28;20454;-75
2023/10/18 07:49:20;;;;;;;0.00;0.00;;;;;;;11.64;80.96;98466.94;4915849;28;20024;-75
2023/10/18 07:51:49;;;;;;;0.00;0.00;;;;;;;11.72;80.38;98468.06;4943827;28;20031;-75
2023/10/18 07:54:20;;;;;;;0.00;0.00;;;;;;;11.73;80.64;98460.66;4955211;28;20057;-75
2023/10/18 07:56:49;;;;;;;0.00;0.00;;;;;;;11.75;80.40;98458.41;4938946;28;20048;-75
2023/10/18 07:59:27;;;;;;;0.00;0.00;;;;;;;11.80;80.78;98444.56;4957875;28;20027;-75
2023/10/18 08:04:47;;;;;;;0.00;0.00;;;;;;;12.00;81.18;98457.63;4927038;28;20046;-75
2023/10/18 08:07:19;;;;;;;0.00;0.00;;;;;;;11.93;81.33;98446.38;4916569;28;20688;-76
2023/10/18 08:09:48;;;;;;;0.00;0.00;;;;;;;11.93;80.86;98440.03;4959067;28;20035;-74
2023/10/18 08:12:36;;;;;;;0.00;0.00;;;;;;;11.90;81.15;98421.50;4961781;28;20035;-75
2023/10/18 08:15:13;;;;;;;0.00;0.00;;;;;;;11.89;81.89;98417.97;4959482;28;20130;-74
2023/10/18 08:17:56;;;;;;;;;;;;;;;;;;;;;
2023/10/18 08:22:49;;;;;;;0.00;0.00;;;;;;;12.08;82.50;98403.16;4943644;28;20091;-75
2023/10/18 08:25:21;;;;;;;0.00;0.00;;;;;;;12.19;82.17;98401.66;4955527;28;20031;-76
2023/10/18 08:28:01;;;;;;;;;;;;;;;;;;;;;
2023/10/18 08:33:36;;;;;;;0.00;0.00;;;;;;;12.22;82.00;98355.25;4944892;28;20032;-75
2023/10/18 08:36:27;;;;;;;0.00;0.00;;;;;;;12.27;81.77;98362.47;4952414;28;20046;-76
2023/10/18 08:39:08;;;;;;;0.00;0.00;;;;;;;12.25;81.78;98367.50;4947912;28;20470;-75
2023/10/18 08:41:37;;;;;;;0.00;0.00;;;;;;;12.32;81.90;98373.25;4945600;28;20030;-75
2023/10/18 08:44:19;;;;;;;0.00;0.00;;;;;;;12.45;81.89;98395.31;4937240;28;20529;-76
2023/10/18 08:46:54;;;;;;;0.00;0.00;;;;;;;12.29;82.36;98349.25;4915875;28;20703;-75
2023/10/18 08:49:25;;;;;;;0.00;0.00;;;;;;;12.47;82.24;98376.59;4962738;28;20024;-75
2023/10/18 08:54:51;;;;;;;0.00;0.00;;;;;;;12.43;82.23;98354.53;4936098;28;20077;-76
2023/10/18 08:57:32;;;;;;;0.00;0.00;;;;;;;12.25;82.73;98329.13;4948630;28;20046;-75
2023/10/18 09:00:17;;;;;;;0.00;0.00;;;;;;;12.38;83.01;98341.00;4945680;28;20058;-76
2023/10/18 09:02:52;;;;;;;0.00;0.00;;;;;;;12.30;83.30;98315.25;4947037;28;20023;-76
2023/10/18 09:05:33;;;;;;;0.00;0.00;;;;;;;12.38;83.19;98330.84;4947248;28;20039;-76
2023/10/18 09:08:03;;;;;;;0.00;0.00;;;;;;;12.51;83.44;98334.50;4956210;28;20058;-77
2023/10/18 09:16:01;;;;;;;0.00;0.00;;;;;;;12.61;83.11;98310.59;4943977;28;20035;-75
2023/10/18 09:18:34;;;;;;;0.00;0.00;;;;;;;12.67;83.16;98282.63;4963097;28;20051;-75
2023/10/18 09:23:41;;;;;;;0.00;0.00;;;;;;;12.97;82.49;98301.81;4939742;28;20047;-75
2023/10/18 09:26:18;;;;;;;0.00;0.00;;;;;;;12.94;82.23;98286.00;4941873;28;20034;-76
2023/10/18 09:28:44;;;;;;;0.00;0.00;;;;;;;13.05;82.37;98309.19;4961045;28;20027;-76
2023/10/18 09:31:13;;;;;;;0.00;0.00;;;;;;;12.90;82.57;98274.88;4956299;28;20808;-75
2023/10/18 09:36:27;;;;;;;0.00;0.00;;;;;;;12.88;82.49;98271.69;4944668;28;20093;-76
2023/10/18 09:39:21;;;;;;;0.00;0.00;;;;;;;13.15;82.48;98288.75;4962818;28;20090;-76
2023/10/18 09:41:47;;;;;;;0.00;0.00;;;;;;;13.23;81.90;98276.91;4953391;28;20023;-75
2023/10/18 09:44:34;;;;;;;0.00;0.00;;;;;;;13.44;81.79;98274.16;4931581;28;20427;-76
2023/10/18 09:46:59;;;;;;;0.00;0.00;;;;;;;13.43;81.38;98261.59;4955819;28;20674;-76
2023/10/18 09:49:26;;;;;;;0.00;0.00;;;;;;;13.61;81.09;98253.16;4957935;28;20489;-75
2023/10/18 09:51:53;;;;;;;0.00;0.00;;;;;;;13.69;80.47;98244.00;4957777;28;20027;-76
2023/10/18 09:54:32;;;;;;;0.00;0.00;;;;;;;13.77;80.11;98251.38;4951204;28;20039;-75
2023/10/18 09:57:06;;;;;;;0.00;0.00;;;;;;;13.76;79.82;98227.78;4938287;28;20377;-75
2023/10/18 10:02:19;;;;;;;0.00;0.00;;;;;;;13.98;79.36;98217.50;4939069;28;20035;-76
2023/10/18 10:04:52;;;;;;;0.00;0.00;;;;;;;14.01;79.27;98208.56;4948486;28;20401;-76
2023/10/18 10:10:24;;;;;;;0.00;0.00;;;;;;;14.53;77.56;98162.25;4937282;28;20042;-77
2023/10/18 10:12:57;;;;;;;0.00;0.00;;;;;;;14.98;76.80;98158.47;4945294;28;20039;-75
2023/10/18 10:15:28;;;;;;;0.00;0.00;;;;;;;15.62;75.47;98172.34;4942603;28;21072;-77
2023/10/18 10:18:00;;;;;;;0.00;0.00;;;;;;;15.89;73.85;98173.47;4946741;28;20097;-76
2023/10/18 10:20:33;;;;;;;0.00;0.00;;;;;;;15.69;73.05;98169.78;4947029;28;20027;-76
2023/10/18 10:23:15;;;;;;;0.00;0.00;;;;;;;15.30;72.54;98158.53;4958312;28;20039;-76
2023/10/18 10:25:48;;;;;;;0.00;0.00;;;;;;;14.95;73.84;98159.16;4942806;28;20036;-77
2023/10/18 10:32:02;;;;;;;0.00;0.00;;;;;;;15.31;74.51;98143.63;4936326;28;20038;-76
2023/10/18 10:34:34;;;;;;;0.00;0.00;;;;;;;15.73;73.34;98137.59;4941488;28;20051;-75
2023/10/18 10:37:08;;;;;;;0.00;0.00;;;;;;;16.12;72.75;98136.97;4947218;28;20038;-74
2023/10/18 10:39:44;;;;;;;0.00;0.00;;;;;;;16.16;71.72;98116.56;4928032;29;20624;-75
2023/10/18 10:42:27;;;;;;;0.00;0.00;;;;;;;16.07;71.73;98118.75;4922573;29;20043;-75
2023/10/18 10:45:30;;;;;;;0.00;0.00;;;;;;;15.75;71.85;98112.44;4941675;28;20595;-76
2023/10/18 10:47:57;;;;;;;0.00;0.00;;;;;;;15.87;72.44;98118.69;4939761;28;20065;-76
2023/10/18 10:51:00;;;;;;;0.00;0.00;;;;;;;16.07;72.21;98113.22;4963471;28;20044;-77
2023/10/18 10:53:34;;;;;;;0.00;0.00;;;;;;;15.77;71.90;98091.66;4948529;28;20054;-75
2023/10/18 10:56:21;;;;;;;0.00;0.00;;;;;;;15.94;72.62;98097.97;4938720;29;20390;-75
2023/10/18 10:59:08;;;;;;;;;;;;;;;;;;;;;
2023/10/18 11:04:57;;;;;;;0.00;0.00;;;;;;;16.98;69.12;98055.19;4928562;28;20027;-76
2023/10/18 11:07:25;;;;;;;0.00;0.00;;;;;;;16.67;69.44;98043.94;4943842;28;20063;-75
2023/10/18 11:10:09;;;;;;;0.00;0.00;;;;;;;16.37;70.32;98022.50;4949558;28;20554;-75
2023/10/18 11:12:38;;;;;;;0.00;0.00;;;;;;;16.00;71.34;98035.88;4939691;28;20028;-75
2023/10/18 11:15:09;;;;;;;0.00;0.00;;;;;;;15.73;72.42;98024.66;4944134;28;20519;-74
2023/10/18 11:17:48;;;;;;;0.00;0.00;;;;;;;15.51;73.09;98018.63;4938372;28;20663;-74
2023/10/18 11:20:19;;;;;;;0.00;0.00;;;;;;;15.35;73.79;98001.34;4946364;28;20082;-74
2023/10/18 11:22:50;;;;;;;0.00;0.00;;;;;;;15.36;74.25;98013.94;4918381;28;20047;-73
2023/10/18 11:25:20;;;;;;;0.00;0.00;;;;;;;15.29;74.88;97994.50;4928440;28;20027;-75
2023/10/18 11:27:46;;;;;;;0.00;0.00;;;;;;;15.67;74.82;98001.28;4955494;28;20031;-75
2023/10/18 11:30:16;;;;;;;0.00;0.00;;;;;;;15.90;73.97;97992.34;4942431;28;20509;-74
2023/10/18 11:32:48;;;;;;;0.00;0.00;;;;;;;15.95;73.04;97953.50;4942550;28;20031;-73
2023/10/18 11:35:26;;;;;;;0.00;0.00;;;;;;;16.43;72.02;97973.34;4952541;28;20777;-73
2023/10/18 11:37:52;;;;;;;0.00;0.00;;;;;;;16.56;71.52;97974.00;4922364;28;20106;-76
2023/10/18 11:40:29;;;;;;;0.00;0.00;;;;;;;16.51;71.13;97950.25;4940310;28;20035;-75
2023/10/18 11:42:55;;;;;;;0.00;0.00;;;;;;;16.57;70.62;97959.84;4938464;28;20031;-75
2023/10/18 11:45:27;;;;;;;0.00;0.00;;;;;;;16.35;70.98;97938.53;4960180;28;20122;-74
2023/10/18 11:47:53;;;;;;;0.00;0.00;;;;;;;16.07;71.80;97923.03;4937102;28;20027;-75
2023/10/18 11:50:27;;;;;;;0.00;0.00;;;;;;;15.95;72.47;97920.44;4948434;28;20078;-73
2023/10/18 11:53:02;;;;;;;;;;;;;;;15.93;73.19;97933.75;4957093;28;20029;-74
2023/10/18 11:55:28;;;;;;;0.00;0.00;;;;;;;15.53;73.69;97897.88;4951805;28;19921;-74
2023/10/18 11:58:08;;;;;;;0.00;0.00;;;;;;;15.52;74.55;97912.84;4913442;29;20031;-75
2023/10/18 12:00:44;;;;;;;0.00;0.00;;;;;;;15.21;75.03;97879.88;4946395;28;20071;-74
2023/10/18 12:03:18;;;;;;;0.00;0.00;;;;;;;15.15;76.10;97882.88;4930243;28;20331;-74
2023/10/18 12:05:44;;;;;;;0.00;0.00;;;;;;;15.08;76.42;97887.44;4953823;28;20500;-75
2023/10/18 12:08:13;;;;;;;0.00;0.00;;;;;;;14.98;77.03;97880.53;4935633;28;20118;-73
2023/10/18 12:10:39;;;;;;;0.00;0.00;;;;;;;14.80;77.53;97856.13;4946800;28;20027;-74
2023/10/18 12:13:12;;;;;;;0.00;0.00;;;;;;;14.85;78.38;97871.59;4946776;28;21146;-74
2023/10/18 12:15:38;;;;;;;0.00;0.00;;;;;;;14.76;78.55;97852.53;4946059;28;20034;-74
2023/10/18 12:18:09;;;;;;;0.00;0.00;;;;;;;14.73;78.76;97858.72;4941134;28;20479;-73
2023/10/18 12:20:43;;;;;;;0.00;0.00;;;;;;;14.50;79.63;97825.53;4947877;28;20082;-75
2023/10/18 12:23:25;;;;;;;0.00;0.00;;;;;;;14.58;80.25;97843.00;4932957;28;20097;-74
2023/10/18 12:25:50;;;;;;;0.00;0.00;;;;;;;14.26;80.40;97810.00;4951973;28;20051;-74
2023/10/18 12:28:18;;;;;;;0.00;0.00;;;;;;;14.21;81.14;97796.56;4921169;28;20039;-74
2023/10/18 12:30:51;;;;;;;0.00;0.00;;;;;;;14.22;81.58;97798.94;4954160;28;20022;-76
2023/10/18 12:33:25;;;;;;;0.00;0.00;;;;;;;14.12;82.23;97788.47;4930840;28;20062;-74
2023/10/18 12:35:59;;;;;;;0.00;0.00;;;;;;;13.97;82.89;97770.81;4953722;28;20445;-75
2023/10/18 12:38:34;;;;;;;;;;;;;;;14.02;83.26;97789.78;4962497;28;20027;-77
2023/10/18 12:41:17;;;;;;;0.00;0.00;;;;;;;13.91;84.14;97772.22;4941692;28;19918;-75
2023/10/18 12:43:47;;;;;;;0.00;0.00;;;;;;;13.64;85.21;97738.97;4944711;28;20853;-74
2023/10/18 12:46:21;;;;;;;0.00;0.00;;;;;;;13.68;85.55;97753.59;4949927;28;20212;-74
2023/10/18 12:48:49;;;;;;;0.00;0.00;;;;;;;13.46;86.55;97724.75;4929723;28;20110;-76
2023/10/18 12:51:30;;;;;;;0.00;0.00;;;;;;;13.32;87.44;97725.16;4966375;28;20031;-75